sensor_id;sensor_type;location;lat;lon;timestamp;pressure;altitude;pressure_sealevel;temperature;humidity
788;BME280;16074;42.708;23.312;2023-04-15T00:00:38;140391.59;;;8.62;98.52
788;BME280;16074;42.708;23.312;2023-04-15T00:03:08;140350.78;;;8.45;100.00
788;BME280;16074;42.708;23.312;2023-04-15T00:05:37;140289.50;;;8.20;97.67
788;BME280;16074;42.708;23.312;2023-04-15T00:08:05;140282.28;;;8.17;99.83
788;BME280;16074;42.708;23.312;2023-04-15T00:10:34;140319.50;;;8.32;100.00
788;BME280;16074;42.708;23.312;2023-04-15T00:13:02;140343.56;;;8.42;100.00
788;BME280;16074;42.708;23.312;2023-04-15T00:15:30;140356.75;;;8.48;99.52
788;BME280;16074;42.708;23.312;2023-04-15T00:17:58;140394.00;;;8.63;97.53
788;BME280;16074;42.708;23.312;2023-04-15T00:20:28;140410.84;;;8.70;100.00
788;BME280;16074;42.708;23.312;2023-04-15T00:22:57;140424.09;;;8.76;100.00
788;BME280;16074;42.708;23.312;2023-04-15T00:25:26;140437.28;;;8.81;99.81
788;BME280;16074;42.708;23.312;2023-04-15T00:27:55;140472.13;;;8.96;99.90
788;BME280;16074;42.708;23.312;2023-04-15T00:30:23;140497.41;;;9.06;100.00
788;BME280;16074;42.708;23.312;2023-04-15T00:32:52;140507.00;;;9.10;98.40
788;BME280;16074;42.708;23.312;2023-04-15T00:35:21;140502.19;;;9.08;94.93
788;BME280;16074;42.708;23.312;2023-04-15T00:37:51;140480.56;;;8.99;95.87
788;BME280;16074;42.708;23.312;2023-04-15T00:40:20;140440.88;;;8.83;96.89
788;BME280;16074;42.708;23.312;2023-04-15T00:42:50;140454.13;;;8.88;99.29
788;BME280;16074;42.708;23.312;2023-04-15T00:45:19;140431.25;;;8.79;100.00
788;BME280;16074;42.708;23.312;2023-04-15T00:47:48;140451.72;;;8.87;100.00
788;BME280;16074;42.708;23.312;2023-04-15T00:50:16;140420.44;;;8.74;100.00
788;BME280;16074;42.708;23.312;2023-04-15T00:52:45;140444.50;;;8.84;100.00
788;BME280;16074;42.708;23.312;2023-04-15T00:55:15;140443.28;;;8.84;100.00
788;BME280;16074;42.708;23.312;2023-04-15T00:57:43;140437.28;;;8.81;100.00
788;BME280;16074;42.708;23.312;2023-04-15T01:00:12;140430.06;;;8.78;100.00
788;BME280;16074;42.708;23.312;2023-04-15T01:02:42;140401.22;;;8.66;100.00
788;BME280;16074;42.708;23.312;2023-04-15T01:05:11;140416.88;;;8.73;100.00
788;BME280;16074;42.708;23.312;2023-04-15T01:07:39;140418.03;;;8.73;100.00
788;BME280;16074;42.708;23.312;2023-04-15T01:10:08;140439.69;;;8.82;100.00
788;BME280;16074;42.708;23.312;2023-04-15T01:12:38;140438.47;;;8.82;100.00
788;BME280;16074;42.708;23.312;2023-04-15T01:15:08;140442.09;;;8.83;100.00
788;BME280;16074;42.708;23.312;2023-04-15T01:17:37;140431.25;;;8.79;100.00
788;BME280;16074;42.708;23.312;2023-04-15T01:20:07;140438.47;;;8.82;100.00
788;BME280;16074;42.708;23.312;2023-04-15T01:22:38;140455.28;;;8.89;100.00
788;BME280;16074;42.708;23.312;2023-04-15T01:25:10;140495.00;;;9.05;100.00
788;BME280;16074;42.708;23.312;2023-04-15T01:27:40;140498.59;;;9.07;100.00
788;BME280;16074;42.708;23.312;2023-04-15T01:30:10;140509.41;;;9.11;100.00
788;BME280;16074;42.708;23.312;2023-04-15T01:32:38;140511.81;;;9.12;100.00
788;BME280;16074;42.708;23.312;2023-04-15T01:35:25;140523.84;;;9.17;100.00
788;BME280;16074;42.708;23.312;2023-04-15T01:37:59;140535.84;;;9.22;100.00
788;BME280;16074;42.708;23.312;2023-04-15T01:40:30;140507.00;;;9.10;100.00
788;BME280;16074;42.708;23.312;2023-04-15T01:43:01;140487.78;;;9.02;100.00
788;BME280;16074;42.708;23.312;2023-04-15T01:45:29;140436.06;;;8.81;100.00
788;BME280;16074;42.708;23.312;2023-04-15T01:47:58;140468.53;;;8.94;100.00
788;BME280;16074;42.708;23.312;2023-04-15T01:50:26;140468.53;;;8.94;100.00
788;BME280;16074;42.708;23.312;2023-04-15T01:52:55;140478.16;;;8.98;100.00
788;BME280;16074;42.708;23.312;2023-04-15T01:55:23;140479.34;;;8.99;100.00
788;BME280;16074;42.708;23.312;2023-04-15T01:57:52;140451.72;;;8.87;100.00
788;BME280;16074;42.708;23.312;2023-04-15T02:00:21;140478.16;;;8.98;100.00
788;BME280;16074;42.708;23.312;2023-04-15T02:02:51;140424.09;;;8.76;100.00
788;BME280;16074;42.708;23.312;2023-04-15T02:05:19;140446.91;;;8.85;100.00
788;BME280;16074;42.708;23.312;2023-04-15T02:07:48;140445.69;;;8.85;100.00
788;BME280;16074;42.708;23.312;2023-04-15T02:10:16;140445.69;;;8.85;100.00
788;BME280;16074;42.708;23.312;2023-04-15T02:12:45;140440.88;;;8.83;100.00
788;BME280;16074;42.708;23.312;2023-04-15T02:15:13;140436.06;;;8.81;100.00
788;BME280;16074;42.708;23.312;2023-04-15T02:17:42;140432.47;;;8.79;100.00
788;BME280;16074;42.708;23.312;2023-04-15T02:20:17;140394.00;;;8.63;100.00
788;BME280;16074;42.708;23.312;2023-04-15T02:22:47;140401.22;;;8.66;100.00
788;BME280;16074;42.708;23.312;2023-04-15T02:25:15;140394.00;;;8.63;100.00
788;BME280;16074;42.708;23.312;2023-04-15T02:27:44;140343.56;;;8.42;100.00
788;BME280;16074;42.708;23.312;2023-04-15T02:30:12;140341.16;;;8.41;100.00
788;BME280;16074;42.708;23.312;2023-04-15T02:32:40;140325.50;;;8.35;100.00
788;BME280;16074;42.708;23.312;2023-04-15T02:35:12;140324.31;;;8.34;100.00
788;BME280;16074;42.708;23.312;2023-04-15T02:37:40;140314.72;;;8.30;100.00
788;BME280;16074;42.708;23.312;2023-04-15T02:40:12;140302.69;;;8.26;100.00
788;BME280;16074;42.708;23.312;2023-04-15T02:42:40;140266.59;;;8.11;100.00
788;BME280;16074;42.708;23.312;2023-04-15T02:45:12;140252.16;;;8.05;100.00
788;BME280;16074;42.708;23.312;2023-04-15T02:47:41;140256.97;;;8.07;100.00
788;BME280;16074;42.708;23.312;2023-04-15T02:50:13;140218.56;;;7.91;100.00
788;BME280;16074;42.708;23.312;2023-04-15T02:52:42;140189.75;;;7.79;100.00
788;BME280;16074;42.708;23.312;2023-04-15T02:55:11;140164.50;;;7.68;100.00
788;BME280;16074;42.708;23.312;2023-04-15T02:57:40;140130.91;;;7.54;100.00
788;BME280;16074;42.708;23.312;2023-04-15T03:00:10;140118.91;;;7.49;100.00
788;BME280;16074;42.708;23.312;2023-04-15T03:02:44;140094.88;;;7.39;100.00
788;BME280;16074;42.708;23.312;2023-04-15T03:05:14;140103.25;;;7.43;100.00
788;BME280;16074;42.708;23.312;2023-04-15T03:07:48;140090.09;;;7.37;100.00
788;BME280;16074;42.708;23.312;2023-04-15T03:10:17;140080.47;;;7.33;100.00
788;BME280;16074;42.708;23.312;2023-04-15T03:12:46;140068.47;;;7.28;100.00
788;BME280;16074;42.708;23.312;2023-04-15T03:15:19;140051.66;;;7.21;100.00
788;BME280;16074;42.708;23.312;2023-04-15T03:17:51;140028.88;;;7.12;100.00
788;BME280;16074;42.708;23.312;2023-04-15T03:20:20;140014.47;;;7.06;100.00
788;BME280;16074;42.708;23.312;2023-04-15T03:22:49;139935.28;;;6.73;100.00
788;BME280;16074;42.708;23.312;2023-04-15T03:25:20;139917.28;;;6.66;100.00
788;BME280;16074;42.708;23.312;2023-04-15T03:27:48;139899.28;;;6.58;100.00
788;BME280;16074;42.708;23.312;2023-04-15T03:30:16;139805.78;;;6.19;100.00
788;BME280;16074;42.708;23.312;2023-04-15T03:32:45;139793.78;;;6.14;100.00
788;BME280;16074;42.708;23.312;2023-04-15T03:35:14;139770.97;;;6.05;100.00
788;BME280;16074;42.708;23.312;2023-04-15T03:37:44;139815.31;;;6.23;100.00
788;BME280;16074;42.708;23.312;2023-04-15T03:40:12;139824.91;;;6.27;100.00
788;BME280;16074;42.708;23.312;2023-04-15T03:42:41;139853.69;;;6.39;100.00
788;BME280;16074;42.708;23.312;2023-04-15T03:45:10;139826.13;;;6.28;100.00
788;BME280;16074;42.708;23.312;2023-04-15T03:47:38;139827.31;;;6.28;100.00
788;BME280;16074;42.708;23.312;2023-04-15T03:50:07;139806.94;;;6.20;100.00
788;BME280;16074;42.708;23.312;2023-04-15T03:52:35;139834.50;;;6.31;100.00
788;BME280;16074;42.708;23.312;2023-04-15T03:55:06;139866.91;;;6.45;100.00
788;BME280;16074;42.708;23.312;2023-04-15T03:57:35;139865.69;;;6.44;100.00
788;BME280;16074;42.708;23.312;2023-04-15T04:00:06;139858.50;;;6.41;100.00
788;BME280;16074;42.708;23.312;2023-04-15T04:02:37;139888.47;;;6.54;100.00
788;BME280;16074;42.708;23.312;2023-04-15T04:05:06;139872.91;;;6.47;100.00
788;BME280;16074;42.708;23.312;2023-04-15T04:07:35;139884.91;;;6.52;100.00
788;BME280;16074;42.708;23.312;2023-04-15T04:10:06;139796.19;;;6.15;100.00
788;BME280;16074;42.708;23.312;2023-04-15T04:12:34;139820.13;;;6.25;100.00
788;BME280;16074;42.708;23.312;2023-04-15T04:15:03;139770.97;;;6.05;100.00
788;BME280;16074;42.708;23.312;2023-04-15T04:17:31;139746.97;;;5.95;100.00
788;BME280;16074;42.708;23.312;2023-04-15T04:19:59;139705.03;;;5.78;100.00
788;BME280;16074;42.708;23.312;2023-04-15T04:22:28;139750.59;;;5.96;100.00
788;BME280;16074;42.708;23.312;2023-04-15T04:24:56;139737.44;;;5.91;100.00
788;BME280;16074;42.708;23.312;2023-04-15T04:27:26;139769.78;;;6.04;100.00
788;BME280;16074;42.708;23.312;2023-04-15T04:29:55;139769.78;;;6.04;100.00
788;BME280;16074;42.708;23.312;2023-04-15T04:32:23;139818.94;;;6.25;100.00
788;BME280;16074;42.708;23.312;2023-04-15T04:34:51;139835.72;;;6.32;100.00
788;BME280;16074;42.708;23.312;2023-04-15T04:37:20;139850.13;;;6.38;100.00
788;BME280;16074;42.708;23.312;2023-04-15T04:39:49;139883.66;;;6.52;100.00
788;BME280;16074;42.708;23.312;2023-04-15T04:42:17;139912.47;;;6.64;100.00
788;BME280;16074;42.708;23.312;2023-04-15T04:44:47;139935.28;;;6.73;100.00
788;BME280;16074;42.708;23.312;2023-04-15T04:47:15;139956.84;;;6.82;100.00
788;BME280;16074;42.708;23.312;2023-04-15T04:49:43;139973.66;;;6.89;100.00
788;BME280;16074;42.708;23.312;2023-04-15T04:52:11;139995.25;;;6.98;100.00
788;BME280;16074;42.708;23.312;2023-04-15T04:54:39;140008.47;;;7.04;100.00
788;BME280;16074;42.708;23.312;2023-04-15T04:57:08;140015.69;;;7.07;100.00
788;BME280;16074;42.708;23.312;2023-04-15T04:59:36;140040.88;;;7.17;100.00
788;BME280;16074;42.708;23.312;2023-04-15T05:02:06;140039.66;;;7.16;100.00
788;BME280;16074;42.708;23.312;2023-04-15T05:04:34;140012.06;;;7.05;100.00
788;BME280;16074;42.708;23.312;2023-04-15T05:07:03;140046.84;;;7.19;100.00
788;BME280;16074;42.708;23.312;2023-04-15T05:09:31;140051.66;;;7.21;100.00
788;BME280;16074;42.708;23.312;2023-04-15T05:12:02;140026.47;;;7.11;100.00
788;BME280;16074;42.708;23.312;2023-04-15T05:14:31;140038.47;;;7.16;100.00
788;BME280;16074;42.708;23.312;2023-04-15T05:16:59;140082.88;;;7.34;100.00
788;BME280;16074;42.708;23.312;2023-04-15T05:19:29;140038.47;;;7.16;100.00
788;BME280;16074;42.708;23.312;2023-04-15T05:21:57;140050.47;;;7.21;100.00
788;BME280;16074;42.708;23.312;2023-04-15T05:24:25;140070.88;;;7.29;100.00
788;BME280;16074;42.708;23.312;2023-04-15T05:26:54;140020.44;;;7.08;100.00
788;BME280;16074;42.708;23.312;2023-04-15T05:29:22;140007.25;;;7.03;100.00
788;BME280;16074;42.708;23.312;2023-04-15T05:31:51;140061.25;;;7.25;100.00
788;BME280;16074;42.708;23.312;2023-04-15T05:34:19;140087.69;;;7.36;100.00
788;BME280;16074;42.708;23.312;2023-04-15T05:36:48;140118.91;;;7.49;100.00
788;BME280;16074;42.708;23.312;2023-04-15T05:39:18;140092.47;;;7.38;100.00
788;BME280;16074;42.708;23.312;2023-04-15T05:41:46;140102.09;;;7.42;100.00
788;BME280;16074;42.708;23.312;2023-04-15T05:44:14;140153.72;;;7.64;100.00
788;BME280;16074;42.708;23.312;2023-04-15T05:46:43;140187.34;;;7.78;100.00
788;BME280;16074;42.708;23.312;2023-04-15T05:49:11;140225.72;;;7.94;100.00
788;BME280;16074;42.708;23.312;2023-04-15T05:51:39;140242.56;;;8.01;100.00
788;BME280;16074;42.708;23.312;2023-04-15T05:54:09;140265.41;;;8.10;100.00
788;BME280;16074;42.708;23.312;2023-04-15T05:56:37;140281.06;;;8.17;100.00
788;BME280;16074;42.708;23.312;2023-04-15T05:59:06;140324.31;;;8.34;100.00
788;BME280;16074;42.708;23.312;2023-04-15T06:01:34;140357.97;;;8.48;100.00
788;BME280;16074;42.708;23.312;2023-04-15T06:04:02;140407.25;;;8.69;100.00
788;BME280;16074;42.708;23.312;2023-04-15T06:06:31;140433.66;;;8.80;100.00
788;BME280;16074;42.708;23.312;2023-04-15T06:08:59;140455.28;;;8.89;100.00
788;BME280;16074;42.708;23.312;2023-04-15T06:11:29;140492.59;;;9.04;99.25
788;BME280;16074;42.708;23.312;2023-04-15T06:13:58;140528.66;;;9.19;97.06
788;BME280;16074;42.708;23.312;2023-04-15T06:16:26;140558.75;;;9.32;95.23
788;BME280;16074;42.708;23.312;2023-04-15T06:18:54;140589.97;;;9.44;95.94
788;BME280;16074;42.708;23.312;2023-04-15T06:21:22;140587.56;;;9.43;94.61
788;BME280;16074;42.708;23.312;2023-04-15T06:23:52;140616.44;;;9.55;93.07
788;BME280;16074;42.708;23.312;2023-04-15T06:26:20;140658.53;;;9.73;92.30
788;BME280;16074;42.708;23.312;2023-04-15T06:28:50;140689.84;;;9.86;91.22
788;BME280;16074;42.708;23.312;2023-04-15T06:31:18;140722.31;;;9.99;91.84
788;BME280;16074;42.708;23.312;2023-04-15T06:33:47;140740.44;;;10.07;89.87
788;BME280;16074;42.708;23.312;2023-04-15T06:36:15;140787.38;;;10.26;89.04
788;BME280;16074;42.708;23.312;2023-04-15T06:38:43;140821.09;;;10.40;87.99
788;BME280;16074;42.708;23.312;2023-04-15T06:41:11;140840.31;;;10.48;86.73
788;BME280;16074;42.708;23.312;2023-04-15T06:43:40;140890.91;;;10.69;86.34
788;BME280;16074;42.708;23.312;2023-04-15T06:46:10;140927.06;;;10.84;85.31
788;BME280;16074;42.708;23.312;2023-04-15T06:48:39;140960.78;;;10.98;83.10
788;BME280;16074;42.708;23.312;2023-04-15T06:51:07;140994.47;;;11.12;84.22
788;BME280;16074;42.708;23.312;2023-04-15T06:53:35;141024.63;;;11.24;82.41
788;BME280;16074;42.708;23.312;2023-04-15T06:56:07;141060.75;;;11.39;80.25
788;BME280;16074;42.708;23.312;2023-04-15T06:58:35;141100.59;;;11.56;79.91
788;BME280;16074;42.708;23.312;2023-04-15T07:01:04;141166.91;;;11.83;78.92
788;BME280;16074;42.708;23.312;2023-04-15T07:03:34;141239.22;;;12.13;75.88
788;BME280;16074;42.708;23.312;2023-04-15T07:06:02;141334.50;;;12.52;73.96
788;BME280;16074;42.708;23.312;2023-04-15T07:08:32;141414.09;;;12.85;71.52
788;BME280;16074;42.708;23.312;2023-04-15T07:11:00;141514.34;;;13.26;70.45
788;BME280;16074;42.708;23.312;2023-04-15T07:13:30;141609.72;;;13.66;67.09
788;BME280;16074;42.708;23.312;2023-04-15T07:15:59;141693.06;;;14.00;64.81
788;BME280;16074;42.708;23.312;2023-04-15T07:18:27;141795.81;;;14.42;63.34
788;BME280;16074;42.708;23.312;2023-04-15T07:20:56;141830.84;;;14.57;61.24
788;BME280;16074;42.708;23.312;2023-04-15T07:23:25;141899.75;;;14.85;60.56
788;BME280;16074;42.708;23.312;2023-04-15T07:25:53;142009.78;;;15.31;59.29
788;BME280;16074;42.708;23.312;2023-04-15T07:28:21;142075.13;;;15.57;55.53
788;BME280;16074;42.708;23.312;2023-04-15T07:30:50;142159.81;;;15.92;54.16
788;BME280;16074;42.708;23.312;2023-04-15T07:33:18;142196.13;;;16.07;53.49
788;BME280;16074;42.708;23.312;2023-04-15T07:35:46;142272.41;;;16.39;51.65
788;BME280;16074;42.708;23.312;2023-04-15T07:38:16;142316.00;;;16.57;51.98
788;BME280;16074;42.708;23.312;2023-04-15T07:40:45;142400.75;;;16.91;50.29
788;BME280;16074;42.708;23.312;2023-04-15T07:43:14;142466.19;;;17.18;47.44
788;BME280;16074;42.708;23.312;2023-04-15T07:45:42;142478.31;;;17.23;47.02
788;BME280;16074;42.708;23.312;2023-04-15T07:48:10;142568.00;;;17.60;45.83
788;BME280;16074;42.708;23.312;2023-04-15T07:50:39;142609.22;;;17.77;43.69
788;BME280;16074;42.708;23.312;2023-04-15T07:53:07;142631.00;;;17.86;43.86
788;BME280;16074;42.708;23.312;2023-04-15T07:55:37;142568.00;;;17.60;43.57
788;BME280;16074;42.708;23.312;2023-04-15T07:58:05;142515.91;;;17.39;44.35
788;BME280;16074;42.708;23.312;2023-04-15T08:00:33;142557.13;;;17.56;44.42
788;BME280;16074;42.708;23.312;2023-04-15T08:03:02;142547.41;;;17.52;43.57
788;BME280;16074;42.708;23.312;2023-04-15T08:05:30;142584.97;;;17.67;43.22
788;BME280;16074;42.708;23.312;2023-04-15T08:07:59;142643.13;;;17.91;42.47
788;BME280;16074;42.708;23.312;2023-04-15T08:10:28;142696.47;;;18.13;41.11
788;BME280;16074;42.708;23.312;2023-04-15T08:12:57;142523.19;;;17.42;43.60
788;BME280;16074;42.708;23.312;2023-04-15T08:15:27;142600.72;;;17.74;42.41
788;BME280;16074;42.708;23.312;2023-04-15T08:17:55;142643.13;;;17.91;41.09
788;BME280;16074;42.708;23.312;2023-04-15T08:20:23;142735.34;;;18.29;41.25
788;BME280;16074;42.708;23.312;2023-04-15T08:22:51;142778.97;;;18.47;40.56
788;BME280;16074;42.708;23.312;2023-04-15T08:25:20;142895.47;;;18.95;39.48
788;BME280;16074;42.708;23.312;2023-04-15T08:27:48;143001.03;;;19.38;37.80
788;BME280;16074;42.708;23.312;2023-04-15T08:30:18;143065.38;;;19.64;37.27
788;BME280;16074;42.708;23.312;2023-04-15T08:32:46;143135.81;;;19.93;37.09
788;BME280;16074;42.708;23.312;2023-04-15T08:35:15;143106.66;;;19.81;36.20
788;BME280;16074;42.708;23.312;2023-04-15T08:37:43;143216.00;;;20.26;35.89
788;BME280;16074;42.708;23.312;2023-04-15T08:40:12;143284.06;;;20.54;34.15
788;BME280;16074;42.708;23.312;2023-04-15T08:42:43;143120.00;;;19.87;35.23
788;BME280;16074;42.708;23.312;2023-04-15T08:45:12;143286.47;;;20.55;35.43
788;BME280;16074;42.708;23.312;2023-04-15T08:47:42;142946.44;;;19.16;36.56
788;BME280;16074;42.708;23.312;2023-04-15T08:50:11;143118.81;;;19.86;36.42
788;BME280;16074;42.708;23.312;2023-04-15T08:52:39;143137.00;;;19.94;35.63
788;BME280;16074;42.708;23.312;2023-04-15T08:55:08;143072.66;;;19.67;35.83
788;BME280;16074;42.708;23.312;2023-04-15T08:57:38;143133.38;;;19.92;35.13
788;BME280;16074;42.708;23.312;2023-04-15T09:00:07;143062.94;;;19.63;36.24
788;BME280;16074;42.708;23.312;2023-04-15T09:02:36;142873.63;;;18.86;36.84
788;BME280;16074;42.708;23.312;2023-04-15T09:05:07;142640.69;;;17.90;37.99
788;BME280;16074;42.708;23.312;2023-04-15T09:07:35;142777.78;;;18.46;37.92
788;BME280;16074;42.708;23.312;2023-04-15T09:10:04;142877.22;;;18.87;38.15
788;BME280;16074;42.708;23.312;2023-04-15T09:12:33;142925.78;;;19.07;37.07
788;BME280;16074;42.708;23.312;2023-04-15T09:15:03;142975.56;;;19.27;37.62
788;BME280;16074;42.708;23.312;2023-04-15T09:17:32;142990.13;;;19.33;36.62
788;BME280;16074;42.708;23.312;2023-04-15T09:20:09;143077.53;;;19.69;36.45
788;BME280;16074;42.708;23.312;2023-04-15T09:22:39;143178.34;;;20.11;35.47
788;BME280;16074;42.708;23.312;2023-04-15T09:25:26;143336.28;;;20.75;34.77
788;BME280;16074;42.708;23.312;2023-04-15T09:27:57;143460.31;;;21.26;34.89
788;BME280;16074;42.708;23.312;2023-04-15T09:30:27;143524.75;;;21.53;34.13
788;BME280;16074;42.708;23.312;2023-04-15T09:32:57;143536.91;;;21.58;33.85
788;BME280;16074;42.708;23.312;2023-04-15T09:35:27;143571.03;;;21.72;34.38
788;BME280;16074;42.708;23.312;2023-04-15T09:38:02;143616.00;;;21.90;33.84
788;BME280;16074;42.708;23.312;2023-04-15T09:40:31;143630.59;;;21.96;33.95
788;BME280;16074;42.708;23.312;2023-04-15T09:43:00;143602.59;;;21.84;33.80
788;BME280;16074;42.708;23.312;2023-04-15T09:45:28;143622.06;;;21.92;33.47
788;BME280;16074;42.708;23.312;2023-04-15T09:47:58;143606.28;;;21.86;34.19
788;BME280;16074;42.708;23.312;2023-04-15T09:50:28;143641.53;;;22.00;34.73
788;BME280;16074;42.708;23.312;2023-04-15T09:52:57;143618.44;;;21.91;32.52
788;BME280;16074;42.708;23.312;2023-04-15T09:55:25;143556.41;;;21.66;32.33
788;BME280;16074;42.708;23.312;2023-04-15T09:57:53;143517.44;;;21.50;32.78
788;BME280;16074;42.708;23.312;2023-04-15T10:00:22;143423.81;;;21.11;32.70
788;BME280;16074;42.708;23.312;2023-04-15T10:02:50;143346.00;;;20.79;32.67
788;BME280;16074;42.708;23.312;2023-04-15T10:05:19;143341.16;;;20.77;33.45
788;BME280;16074;42.708;23.312;2023-04-15T10:07:50;143258.50;;;20.43;34.41
788;BME280;16074;42.708;23.312;2023-04-15T10:10:19;143274.34;;;20.50;34.61
788;BME280;16074;42.708;23.312;2023-04-15T10:12:48;143251.22;;;20.41;32.85
788;BME280;16074;42.708;23.312;2023-04-15T10:15:18;143191.69;;;20.16;31.32
788;BME280;16074;42.708;23.312;2023-04-15T10:17:47;143203.84;;;20.21;31.21
788;BME280;16074;42.708;23.312;2023-04-15T10:20:18;143233.00;;;20.33;31.59
788;BME280;16074;42.708;23.312;2023-04-15T10:22:49;143339.91;;;20.77;31.53
788;BME280;16074;42.708;23.312;2023-04-15T10:25:18;143426.25;;;21.12;30.53
788;BME280;16074;42.708;23.312;2023-04-15T10:27:47;143485.81;;;21.37;31.24
788;BME280;16074;42.708;23.312;2023-04-15T10:30:19;143588.06;;;21.78;30.61
788;BME280;16074;42.708;23.312;2023-04-15T10:32:48;143729.22;;;22.36;29.49
788;BME280;16074;42.708;23.312;2023-04-15T10:35:17;143844.78;;;22.84;28.60
788;BME280;16074;42.708;23.312;2023-04-15T10:37:47;143866.72;;;22.92;27.92
788;BME280;16074;42.708;23.312;2023-04-15T10:40:28;143760.81;;;22.49;28.26
788;BME280;16074;42.708;23.312;2023-04-15T10:42:59;143507.72;;;21.46;28.49
788;BME280;16074;42.708;23.312;2023-04-15T10:45:32;143445.72;;;21.20;29.95
788;BME280;16074;42.708;23.312;2023-04-15T10:48:02;143478.53;;;21.34;28.94
788;BME280;16074;42.708;23.312;2023-04-15T10:50:31;143409.25;;;21.05;29.48
788;BME280;16074;42.708;23.312;2023-04-15T10:53:02;143332.63;;;20.74;30.19
788;BME280;16074;42.708;23.312;2023-04-15T10:55:34;143224.53;;;20.30;30.50
788;BME280;16074;42.708;23.312;2023-04-15T10:58:02;143209.94;;;20.24;31.18
788;BME280;16074;42.708;23.312;2023-04-15T11:00:32;143135.81;;;19.93;31.54
788;BME280;16074;42.708;23.312;2023-04-15T11:03:05;143225.72;;;20.30;31.66
788;BME280;16074;42.708;23.312;2023-04-15T11:05:48;143124.88;;;19.89;31.82
788;BME280;16074;42.708;23.312;2023-04-15T11:08:17;143016.84;;;19.44;31.69
788;BME280;16074;42.708;23.312;2023-04-15T11:10:56;143004.72;;;19.39;32.27
788;BME280;16074;42.708;23.312;2023-04-15T11:13:25;142956.16;;;19.20;32.47
788;BME280;16074;42.708;23.312;2023-04-15T11:16:00;142913.63;;;19.02;32.03
788;BME280;16074;42.708;23.312;2023-04-15T11:18:30;142842.06;;;18.73;33.05
788;BME280;16074;42.708;23.312;2023-04-15T11:21:01;142944.00;;;19.15;32.38
788;BME280;16074;42.708;23.312;2023-04-15T11:23:32;143052.03;;;19.59;32.16
788;BME280;16074;42.708;23.312;2023-04-15T11:26:03;143072.66;;;19.67;32.57
788;BME280;16074;42.708;23.312;2023-04-15T11:28:36;143174.75;;;20.09;31.51
788;BME280;16074;42.708;23.312;2023-04-15T11:31:09;143014.44;;;19.43;32.70
788;BME280;16074;42.708;23.312;2023-04-15T11:33:44;142886.94;;;18.91;32.74
788;BME280;16074;42.708;23.312;2023-04-15T11:36:13;142947.69;;;19.16;30.59
788;BME280;16074;42.708;23.312;2023-04-15T11:38:42;142942.81;;;19.14;31.88
788;BME280;16074;42.708;23.312;2023-04-15T11:41:13;142961.00;;;19.22;31.25
788;BME280;16074;42.708;23.312;2023-04-15T11:43:41;143039.91;;;19.54;31.14
788;BME280;16074;42.708;23.312;2023-04-15T11:46:09;143139.44;;;19.95;30.07
788;BME280;16074;42.708;23.312;2023-04-15T11:48:41;143110.34;;;19.83;31.08
788;BME280;16074;42.708;23.312;2023-04-15T11:51:10;143047.19;;;19.57;30.94
788;BME280;16074;42.708;23.312;2023-04-15T11:53:41;143029.00;;;19.49;30.85
788;BME280;16074;42.708;23.312;2023-04-15T11:56:15;142903.94;;;18.98;31.38
788;BME280;16074;42.708;23.312;2023-04-15T11:58:45;142952.53;;;19.18;31.14
788;BME280;16074;42.708;23.312;2023-04-15T12:01:15;142918.50;;;19.04;31.44
788;BME280;16074;42.708;23.312;2023-04-15T12:03:45;142942.81;;;19.14;31.27
788;BME280;16074;42.708;23.312;2023-04-15T12:06:15;142941.59;;;19.14;31.13
788;BME280;16074;42.708;23.312;2023-04-15T12:08:59;142992.56;;;19.34;30.81
788;BME280;16074;42.708;23.312;2023-04-15T12:11:36;143049.63;;;19.58;30.44
788;BME280;16074;42.708;23.312;2023-04-15T12:14:08;143067.81;;;19.65;30.01
788;BME280;16074;42.708;23.312;2023-04-15T12:16:39;143109.09;;;19.82;29.66
788;BME280;16074;42.708;23.312;2023-04-15T12:19:16;143143.09;;;19.96;29.84
788;BME280;16074;42.708;23.312;2023-04-15T12:21:46;143086.03;;;19.73;30.35
788;BME280;16074;42.708;23.312;2023-04-15T12:24:19;143008.34;;;19.41;30.52
788;BME280;16074;42.708;23.312;2023-04-15T12:26:49;143107.91;;;19.82;30.50
788;BME280;16074;42.708;23.312;2023-04-15T12:29:20;143201.41;;;20.20;29.45
788;BME280;16074;42.708;23.312;2023-04-15T12:31:53;142964.66;;;19.23;30.11
788;BME280;16074;42.708;23.312;2023-04-15T12:34:29;143027.75;;;19.49;30.13
788;BME280;16074;42.708;23.312;2023-04-15T12:37:01;142970.72;;;19.25;30.32
788;BME280;16074;42.708;23.312;2023-04-15T12:39:33;142891.78;;;18.93;30.77
788;BME280;16074;42.708;23.312;2023-04-15T12:42:03;142889.38;;;18.92;30.31
788;BME280;16074;42.708;23.312;2023-04-15T12:44:34;142984.03;;;19.31;30.85
788;BME280;16074;42.708;23.312;2023-04-15T12:47:02;143078.75;;;19.70;30.85
788;BME280;16074;42.708;23.312;2023-04-15T12:49:32;143246.41;;;20.39;30.01
788;BME280;16074;42.708;23.312;2023-04-15T12:52:01;143330.19;;;20.73;29.21
788;BME280;16074;42.708;23.312;2023-04-15T12:54:30;143260.94;;;20.44;29.51
788;BME280;16074;42.708;23.312;2023-04-15T12:56:59;143246.41;;;20.39;29.51
788;BME280;16074;42.708;23.312;2023-04-15T12:59:33;143151.63;;;20.00;29.83
788;BME280;16074;42.708;23.312;2023-04-15T13:02:02;143138.25;;;19.94;29.95
788;BME280;16074;42.708;23.312;2023-04-15T13:04:31;143156.50;;;20.02;29.63
788;BME280;16074;42.708;23.312;2023-04-15T13:07:00;143161.34;;;20.04;29.10
788;BME280;16074;42.708;23.312;2023-04-15T13:09:28;143217.25;;;20.27;29.13
788;BME280;16074;42.708;23.312;2023-04-15T13:11:57;143393.47;;;20.99;28.36